Tai Harvest — H9ZB — position and weather

sailwx.info

Track history (hours):
 
Tides and Currents Weather Stations Pressure Air Temp Water Temp Dewpoint Dewpoint Depression Visibility Wind Speed Wind Dir Waves Ship Positions

Tai Harvest

Last reported at 2017-Aug-23 11:26 UTC. Time now 2017-Sep-19 11:49 UTC.
Position N 35°24' W 025°48'.
Warning: this ship's position is 27 days out of date.

Length 190 m; draft 8.5 m.

Type: Cargo ship. MMSI: 351134000.

Date/timePositionNaut miles runAvg speedWind from/ knotsBaromVisibWave heightAir tempDewpointWater temp
2017-Aug-23 11:26N 35°24' W 025°48'1013.2
2017-Aug-23 10:42N 35°25' W 025°36'1913.2
2017-Aug-23 09:18N 35°28' W 025°14'413.2
2017-Aug-23 08:58N 35°29' W 025°08'713.0
2017-Aug-23 08:26N 35°30' W 024°60'613.3
2017-Aug-23 08:00N 35°30' W 024°53'713.6
2017-Aug-23 07:30N 35°31' W 024°44'713.7
2017-Aug-23 07:00N 35°32' W 024°36'713.6
2017-Aug-23 06:30N 35°32' W 024°28'713.5
2017-Aug-23 06:00N 35°33' W 024°19'713.3
2017-Aug-23 05:30N 35°34' W 024°11'713.5
2017-Aug-23 05:00N 35°34' W 024°03'713.1
2017-Aug-23 04:28N 35°35' W 023°54'813.2
2017-Aug-23 03:51N 35°35' W 023°45'1713.2
2017-Aug-23 02:33N 35°37' W 023°24'2613.0
2017-Aug-23 00:32N 35°39' W 022°51'2313.3
2017-Aug-22 22:47N 35°41' W 022°23'25413.4
2017-Aug-22 03:49N 36°01' W 017°10'413.4
2017-Aug-22 03:30N 36°02' W 017°05'7013.6
2017-Aug-21 22:22N 36°07' W 015°39'8213.2
2017-Aug-21 16:10N 36°09' W 013°58'213.2
2017-Aug-21 16:00N 36°09' W 013°55'1213.1
2017-Aug-21 15:06N 36°08' W 013°40'213.0
2017-Aug-21 14:59N 36°08' W 013°38'613.1
2017-Aug-21 14:30N 36°08' W 013°31'713.1
2017-Aug-21 13:57N 36°08' W 013°22'613.0
2017-Aug-21 13:30N 36°08' W 013°15'812.9
2017-Aug-21 12:55N 36°08' W 013°05'812.9
2017-Aug-21 12:19N 36°07' W 012°56'612.9
2017-Aug-21 11:50N 36°07' W 012°48'512.9
2017-Aug-21 11:26N 36°07' W 012°41'613.1
2017-Aug-21 11:00N 36°07' W 012°34'713.1
2017-Aug-21 10:28N 36°06' W 012°26'712.8
2017-Aug-21 09:56N 36°06' W 012°17'512.8
2017-Aug-21 09:30N 36°06' W 012°11'713.2
2017-Aug-21 09:00N 36°06' W 012°02'713.1
2017-Aug-21 08:30N 36°06' W 011°54'713.1
2017-Aug-21 08:00N 36°06' W 011°46'2113.4
2017-Aug-21 06:26N 36°05' W 011°20'1813.6
2017-Aug-21 05:07N 36°05' W 010°58'3513.5
2017-Aug-21 02:33N 36°04' W 010°15'12113.1
2017-Aug-20 17:19N 36°00' W 007°46'10513.8
2017-Aug-20 09:45N 35°58' W 005°37'314.7
2017-Aug-20 09:31N 35°59' W 005°33'713.7
2017-Aug-20 09:01N 36°02' W 005°25'611.5
2017-Aug-20 08:29N 36°08' W 005°23'1 0.5
2017-Aug-20 06:31N 36°09' W 005°23'0 0.0
2017-Aug-20 06:19N 36°09' W 005°23'0 0.0
2017-Aug-20 05:49N 36°09' W 005°23'0 0.1
2017-Aug-20 05:19N 36°09' W 005°23'0 0.0
2017-Aug-20 01:07N 36°09' W 005°23'0 0.2
2017-Aug-20 00:58N 36°09' W 005°23'0 0.1
2017-Aug-19 23:43N 36°09' W 005°23'0 0.2
2017-Aug-19 21:52N 36°08' W 005°23'2 5.5
2017-Aug-19 21:29N 36°06' W 005°23'3 5.5
2017-Aug-19 21:00N 36°05' W 005°20'611.1
2017-Aug-19 20:30N 36°04' W 005°13'713.2
2017-Aug-19 20:00N 36°05' W 005°05'18213.3
2017-Aug-19 06:21N 36°31' W 001°22'1213.9
2017-Aug-19 05:30N 36°33' W 001°08'813.8
2017-Aug-19 04:55N 36°34' W 000°58'613.6
2017-Aug-19 04:30N 36°35' W 000°51'713.8
2017-Aug-19 04:00N 36°35' W 000°42'713.7
2017-Aug-19 03:30N 36°36' W 000°34'713.6
2017-Aug-19 03:00N 36°37' W 000°25'713.6
2017-Aug-19 02:29N 36°38' W 000°17'813.9
2017-Aug-19 01:54N 36°39' W 000°06'513.9
2017-Aug-19 01:31N 36°40' E 000°00'713.7
2017-Aug-19 01:00N 36°41' E 000°09'713.6
2017-Aug-19 00:30N 36°42' E 000°17'713.6
2017-Aug-19 00:00N 36°43' E 000°25'713.8
2017-Aug-18 23:30N 36°44' E 000°34'713.8
2017-Aug-18 23:00N 36°45' E 000°42'714.0
2017-Aug-18 22:30N 36°45' E 000°51'814.7
2017-Aug-18 21:58N 36°46' E 001°01'714.6
2017-Aug-18 21:30N 36°47' E 001°09'715.0
2017-Aug-18 21:00N 36°48' E 001°18'714.9
2017-Aug-18 20:30N 36°49' E 001°28'714.8
2017-Aug-18 20:00N 36°50' E 001°37'714.7
2017-Aug-18 19:30N 36°51' E 001°46'714.7
2017-Aug-18 19:00N 36°52' E 001°55'714.6
2017-Aug-18 18:30N 36°53' E 002°04'814.7
2017-Aug-18 17:59N 36°54' E 002°13'714.7
2017-Aug-18 17:30N 36°55' E 002°22'814.7
2017-Aug-18 16:59N 36°56' E 002°32'714.4
2017-Aug-18 16:30N 36°57' E 002°40'714.4
2017-Aug-18 16:00N 36°58' E 002°49'714.0
2017-Aug-18 15:30N 36°59' E 002°58'914.0
2017-Aug-18 14:54N 36°60' E 003°09'1213.7
2017-Aug-18 14:00N 37°02' E 003°24'713.9
2017-Aug-18 13:30N 37°03' E 003°32'813.9
2017-Aug-18 12:57N 37°04' E 003°42'613.9
2017-Aug-18 12:30N 37°04' E 003°50'1013.8
2017-Aug-18 11:46N 37°06' E 004°02'413.8
2017-Aug-18 11:30N 37°06' E 004°07'713.6
2017-Aug-18 11:00N 37°07' E 004°15'713.9
2017-Aug-18 10:30N 37°09' E 004°24'713.9
2017-Aug-18 10:00N 37°09' E 004°32'713.8
2017-Aug-18 09:30N 37°10' E 004°41'713.8
2017-Aug-18 08:59N 37°11' E 004°50'713.9
2017-Aug-18 08:30N 37°11' E 004°58'913.8
2017-Aug-18 07:52N 37°13' E 005°09'513.9
2017-Aug-18 07:29N 37°13' E 005°16'713.8
2017-Aug-18 07:00N 37°14' E 005°24'713.7
2017-Aug-18 06:30N 37°15' E 005°33'713.7
2017-Aug-18 06:01N 37°16' E 005°41'813.9
2017-Aug-18 05:24N 37°17' E 005°51'1314.0
2017-Aug-18 04:29N 37°19' E 006°08'714.0
2017-Aug-18 04:00N 37°20' E 006°16'713.9
2017-Aug-18 03:30N 37°21' E 006°25'713.5
2017-Aug-18 03:00N 37°22' E 006°33'1613.7
2017-Aug-18 01:49N 37°24' E 006°53'1613.8
2017-Aug-18 00:40N 37°26' E 007°13'213.6
2017-Aug-18 00:30N 37°26' E 007°16'2413.5
2017-Aug-17 22:45N 37°29' E 007°46'1313.9
2017-Aug-17 21:48N 37°31' E 008°02'414.2
2017-Aug-17 21:30N 37°32' E 008°07'914.3
2017-Aug-17 20:51N 37°33' E 008°19'2214.5
2017-Aug-17 19:20N 37°36' E 008°46'813.7
2017-Aug-17 18:43N 37°37' E 008°57'313.3
2017-Aug-17 18:30N 37°37' E 009°00'713.6
2017-Aug-17 18:00N 37°37' E 009°09'713.7
2017-Aug-17 17:30N 37°38' E 009°18'713.6
2017-Aug-17 17:00N 37°38' E 009°26'713.5
2017-Aug-17 16:30N 37°38' E 009°35'713.4
2017-Aug-17 16:00N 37°38' E 009°43'713.5
2017-Aug-17 15:29N 37°39' E 009°52'713.6
2017-Aug-17 15:00N 37°39' E 010°00'713.6
2017-Aug-17 14:29N 37°39' E 010°09'613.4
2017-Aug-17 14:00N 37°39' E 010°17'713.3
2017-Aug-17 13:30N 37°39' E 010°26'713.2
2017-Aug-17 13:00N 37°38' E 010°34'713.8
2017-Aug-17 12:30N 37°35' E 010°42'713.6
2017-Aug-17 12:00N 37°33' E 010°50'713.6
2017-Aug-17 11:29N 37°30' E 010°58'713.6
2017-Aug-17 11:00N 37°28' E 011°06'713.7
2017-Aug-17 10:30N 37°25' E 011°14'713.9
2017-Aug-17 10:00N 37°23' E 011°22'713.8
2017-Aug-17 09:30N 37°20' E 011°30'713.7
2017-Aug-17 09:00N 37°17' E 011°38'713.9
2017-Aug-17 08:30N 37°15' E 011°46'713.6
2017-Aug-17 08:00N 37°12' E 011°54'713.4
2017-Aug-17 07:29N 37°09' E 012°02'613.5
2017-Aug-17 07:00N 37°05' E 012°08'713.7
2017-Aug-17 06:30N 37°00' E 012°15'1314.1
2017-Aug-17 05:33N 36°52' E 012°28'114.1
2017-Aug-17 05:31N 36°51' E 012°28'714.0
2017-Aug-17 05:00N 36°47' E 012°35'713.9
2017-Aug-17 04:30N 36°43' E 012°42'713.8
2017-Aug-17 04:00N 36°38' E 012°48'713.7
2017-Aug-17 03:30N 36°34' E 012°55'713.8
2017-Aug-17 03:00N 36°29' E 013°01'713.8
2017-Aug-17 02:30N 36°25' E 013°08'713.8
2017-Aug-17 02:00N 36°20' E 013°14'713.7
2017-Aug-17 01:30N 36°16' E 013°21'713.6
2017-Aug-17 01:00N 36°12' E 013°27'713.6
2017-Aug-17 00:30N 36°07' E 013°34'713.6
2017-Aug-17 00:00N 36°03' E 013°41'713.5
2017-Aug-16 23:30N 35°59' E 013°47'713.5
2017-Aug-16 23:00N 35°54' E 013°53'713.6
2017-Aug-16 22:30N 35°50' E 013°60'713.3
2017-Aug-16 22:00N 35°48' E 014°07'713.3
2017-Aug-16 21:30N 35°45' E 014°15'713.6
2017-Aug-16 21:00N 35°43' E 014°23'713.6
2017-Aug-16 20:30N 35°41' E 014°31'713.7
2017-Aug-16 20:00N 35°39' E 014°39'713.6
2017-Aug-16 19:30N 35°36' E 014°47'713.6
2017-Aug-16 19:00N 35°34' E 014°55'713.5
2017-Aug-16 18:30N 35°32' E 015°03'713.4
2017-Aug-16 18:00N 35°29' E 015°10'613.2
2017-Aug-16 17:30N 35°27' E 015°18'613.0
2017-Aug-16 17:00N 35°25' E 015°25'612.6
2017-Aug-16 16:30N 35°22' E 015°32'612.6
2017-Aug-16 16:00N 35°21' E 015°40'612.7
2017-Aug-16 15:30N 35°19' E 015°47'4313.3
2017-Aug-16 12:15N 35°04' E 016°37'313.4
2017-Aug-16 12:00N 35°03' E 016°41'  
Track history (hours):
 
Tides and Currents Weather Stations Pressure Air Temp Water Temp Dewpoint Dewpoint Depression Visibility Wind Speed Wind Dir Waves Ship Positions

Tai Harvest

Last reported at 2017-Aug-23 11:26 UTC. Time now 2017-Sep-19 11:49 UTC.
Position N 35°24' W 025°48'.
Warning: this ship's position is 27 days out of date.

Length 190 m; draft 8.5 m.

Type: Cargo ship. MMSI: 351134000.

Date/timePositionNaut miles runAvg speedWind from/ knotsBaromVisibWave heightAir tempDewpointWater temp
2017-Aug-23 11:26N 35°24' W 025°48'1013.2
2017-Aug-23 10:42N 35°25' W 025°36'1913.2
2017-Aug-23 09:18N 35°28' W 025°14'413.2
2017-Aug-23 08:58N 35°29' W 025°08'713.0
2017-Aug-23 08:26N 35°30' W 024°60'613.3
2017-Aug-23 08:00N 35°30' W 024°53'713.6
2017-Aug-23 07:30N 35°31' W 024°44'713.7
2017-Aug-23 07:00N 35°32' W 024°36'713.6
2017-Aug-23 06:30N 35°32' W 024°28'713.5
2017-Aug-23 06:00N 35°33' W 024°19'713.3
2017-Aug-23 05:30N 35°34' W 024°11'713.5
2017-Aug-23 05:00N 35°34' W 024°03'713.1
2017-Aug-23 04:28N 35°35' W 023°54'813.2
2017-Aug-23 03:51N 35°35' W 023°45'1713.2
2017-Aug-23 02:33N 35°37' W 023°24'2613.0
2017-Aug-23 00:32N 35°39' W 022°51'2313.3
2017-Aug-22 22:47N 35°41' W 022°23'25413.4
2017-Aug-22 03:49N 36°01' W 017°10'413.4
2017-Aug-22 03:30N 36°02' W 017°05'7013.6
2017-Aug-21 22:22N 36°07' W 015°39'8213.2
2017-Aug-21 16:10N 36°09' W 013°58'213.2
2017-Aug-21 16:00N 36°09' W 013°55'1213.1
2017-Aug-21 15:06N 36°08' W 013°40'213.0
2017-Aug-21 14:59N 36°08' W 013°38'613.1
2017-Aug-21 14:30N 36°08' W 013°31'713.1
2017-Aug-21 13:57N 36°08' W 013°22'613.0
2017-Aug-21 13:30N 36°08' W 013°15'812.9
2017-Aug-21 12:55N 36°08' W 013°05'812.9
2017-Aug-21 12:19N 36°07' W 012°56'612.9
2017-Aug-21 11:50N 36°07' W 012°48'512.9
2017-Aug-21 11:26N 36°07' W 012°41'613.1
2017-Aug-21 11:00N 36°07' W 012°34'713.1
2017-Aug-21 10:28N 36°06' W 012°26'712.8
2017-Aug-21 09:56N 36°06' W 012°17'512.8
2017-Aug-21 09:30N 36°06' W 012°11'713.2
2017-Aug-21 09:00N 36°06' W 012°02'713.1
2017-Aug-21 08:30N 36°06' W 011°54'713.1
2017-Aug-21 08:00N 36°06' W 011°46'2113.4
2017-Aug-21 06:26N 36°05' W 011°20'1813.6
2017-Aug-21 05:07N 36°05' W 010°58'3513.5
2017-Aug-21 02:33N 36°04' W 010°15'12113.1
2017-Aug-20 17:19N 36°00' W 007°46'10513.8
2017-Aug-20 09:45N 35°58' W 005°37'314.7
2017-Aug-20 09:31N 35°59' W 005°33'713.7
2017-Aug-20 09:01N 36°02' W 005°25'611.5
2017-Aug-20 08:29N 36°08' W 005°23'1 0.5
2017-Aug-20 06:31N 36°09' W 005°23'0 0.0
2017-Aug-20 06:19N 36°09' W 005°23'0 0.0
2017-Aug-20 05:49N 36°09' W 005°23'0 0.1
2017-Aug-20 05:19N 36°09' W 005°23'0 0.0
2017-Aug-20 01:07N 36°09' W 005°23'0 0.2
2017-Aug-20 00:58N 36°09' W 005°23'0 0.1
2017-Aug-19 23:43N 36°09' W 005°23'0 0.2
2017-Aug-19 21:52N 36°08' W 005°23'2 5.5
2017-Aug-19 21:29N 36°06' W 005°23'3 5.5
2017-Aug-19 21:00N 36°05' W 005°20'611.1
2017-Aug-19 20:30N 36°04' W 005°13'713.2
2017-Aug-19 20:00N 36°05' W 005°05'18213.3
2017-Aug-19 06:21N 36°31' W 001°22'1213.9
2017-Aug-19 05:30N 36°33' W 001°08'813.8
2017-Aug-19 04:55N 36°34' W 000°58'613.6
2017-Aug-19 04:30N 36°35' W 000°51'713.8
2017-Aug-19 04:00N 36°35' W 000°42'713.7
2017-Aug-19 03:30N 36°36' W 000°34'713.6
2017-Aug-19 03:00N 36°37' W 000°25'713.6
2017-Aug-19 02:29N 36°38' W 000°17'813.9
2017-Aug-19 01:54N 36°39' W 000°06'513.9
2017-Aug-19 01:31N 36°40' E 000°00'713.7
2017-Aug-19 01:00N 36°41' E 000°09'713.6
2017-Aug-19 00:30N 36°42' E 000°17'713.6
2017-Aug-19 00:00N 36°43' E 000°25'713.8
2017-Aug-18 23:30N 36°44' E 000°34'713.8
2017-Aug-18 23:00N 36°45' E 000°42'714.0
2017-Aug-18 22:30N 36°45' E 000°51'814.7
2017-Aug-18 21:58N 36°46' E 001°01'714.6
2017-Aug-18 21:30N 36°47' E 001°09'715.0
2017-Aug-18 21:00N 36°48' E 001°18'714.9
2017-Aug-18 20:30N 36°49' E 001°28'714.8
2017-Aug-18 20:00N 36°50' E 001°37'714.7
2017-Aug-18 19:30N 36°51' E 001°46'714.7
2017-Aug-18 19:00N 36°52' E 001°55'714.6
2017-Aug-18 18:30N 36°53' E 002°04'814.7
2017-Aug-18 17:59N 36°54' E 002°13'714.7
2017-Aug-18 17:30N 36°55' E 002°22'814.7
2017-Aug-18 16:59N 36°56' E 002°32'714.4
2017-Aug-18 16:30N 36°57' E 002°40'714.4
2017-Aug-18 16:00N 36°58' E 002°49'714.0
2017-Aug-18 15:30N 36°59' E 002°58'914.0
2017-Aug-18 14:54N 36°60' E 003°09'1213.7
2017-Aug-18 14:00N 37°02' E 003°24'713.9
2017-Aug-18 13:30N 37°03' E 003°32'813.9
2017-Aug-18 12:57N 37°04' E 003°42'613.9
2017-Aug-18 12:30N 37°04' E 003°50'1013.8
2017-Aug-18 11:46N 37°06' E 004°02'413.8
2017-Aug-18 11:30N 37°06' E 004°07'713.6
2017-Aug-18 11:00N 37°07' E 004°15'713.9
2017-Aug-18 10:30N 37°09' E 004°24'713.9
2017-Aug-18 10:00N 37°09' E 004°32'713.8
2017-Aug-18 09:30N 37°10' E 004°41'713.8
2017-Aug-18 08:59N 37°11' E 004°50'713.9
2017-Aug-18 08:30N 37°11' E 004°58'913.8
2017-Aug-18 07:52N 37°13' E 005°09'513.9
2017-Aug-18 07:29N 37°13' E 005°16'713.8
2017-Aug-18 07:00N 37°14' E 005°24'713.7
2017-Aug-18 06:30N 37°15' E 005°33'713.7
2017-Aug-18 06:01N 37°16' E 005°41'813.9
2017-Aug-18 05:24N 37°17' E 005°51'1314.0
2017-Aug-18 04:29N 37°19' E 006°08'714.0
2017-Aug-18 04:00N 37°20' E 006°16'713.9
2017-Aug-18 03:30N 37°21' E 006°25'713.5
2017-Aug-18 03:00N 37°22' E 006°33'1613.7
2017-Aug-18 01:49N 37°24' E 006°53'1613.8
2017-Aug-18 00:40N 37°26' E 007°13'213.6
2017-Aug-18 00:30N 37°26' E 007°16'2413.5
2017-Aug-17 22:45N 37°29' E 007°46'1313.9
2017-Aug-17 21:48N 37°31' E 008°02'414.2
2017-Aug-17 21:30N 37°32' E 008°07'914.3
2017-Aug-17 20:51N 37°33' E 008°19'2214.5
2017-Aug-17 19:20N 37°36' E 008°46'813.7
2017-Aug-17 18:43N 37°37' E 008°57'313.3
2017-Aug-17 18:30N 37°37' E 009°00'713.6
2017-Aug-17 18:00N 37°37' E 009°09'713.7
2017-Aug-17 17:30N 37°38' E 009°18'713.6
2017-Aug-17 17:00N 37°38' E 009°26'713.5
2017-Aug-17 16:30N 37°38' E 009°35'713.4
2017-Aug-17 16:00N 37°38' E 009°43'713.5
2017-Aug-17 15:29N 37°39' E 009°52'713.6
2017-Aug-17 15:00N 37°39' E 010°00'713.6
2017-Aug-17 14:29N 37°39' E 010°09'613.4
2017-Aug-17 14:00N 37°39' E 010°17'713.3
2017-Aug-17 13:30N 37°39' E 010°26'713.2
2017-Aug-17 13:00N 37°38' E 010°34'713.8
2017-Aug-17 12:30N 37°35' E 010°42'713.6
2017-Aug-17 12:00N 37°33' E 010°50'713.6
2017-Aug-17 11:29N 37°30' E 010°58'713.6
2017-Aug-17 11:00N 37°28' E 011°06'713.7
2017-Aug-17 10:30N 37°25' E 011°14'713.9
2017-Aug-17 10:00N 37°23' E 011°22'713.8
2017-Aug-17 09:30N 37°20' E 011°30'713.7
2017-Aug-17 09:00N 37°17' E 011°38'713.9
2017-Aug-17 08:30N 37°15' E 011°46'713.6
2017-Aug-17 08:00N 37°12' E 011°54'713.4
2017-Aug-17 07:29N 37°09' E 012°02'613.5
2017-Aug-17 07:00N 37°05' E 012°08'713.7
2017-Aug-17 06:30N 37°00' E 012°15'1314.1
2017-Aug-17 05:33N 36°52' E 012°28'114.1
2017-Aug-17 05:31N 36°51' E 012°28'714.0
2017-Aug-17 05:00N 36°47' E 012°35'713.9
2017-Aug-17 04:30N 36°43' E 012°42'713.8
2017-Aug-17 04:00N 36°38' E 012°48'713.7
2017-Aug-17 03:30N 36°34' E 012°55'713.8
2017-Aug-17 03:00N 36°29' E 013°01'713.8
2017-Aug-17 02:30N 36°25' E 013°08'713.8
2017-Aug-17 02:00N 36°20' E 013°14'713.7
2017-Aug-17 01:30N 36°16' E 013°21'713.6
2017-Aug-17 01:00N 36°12' E 013°27'713.6
2017-Aug-17 00:30N 36°07' E 013°34'713.6
2017-Aug-17 00:00N 36°03' E 013°41'713.5
2017-Aug-16 23:30N 35°59' E 013°47'713.5
2017-Aug-16 23:00N 35°54' E 013°53'713.6
2017-Aug-16 22:30N 35°50' E 013°60'713.3
2017-Aug-16 22:00N 35°48' E 014°07'713.3
2017-Aug-16 21:30N 35°45' E 014°15'713.6
2017-Aug-16 21:00N 35°43' E 014°23'713.6
2017-Aug-16 20:30N 35°41' E 014°31'713.7
2017-Aug-16 20:00N 35°39' E 014°39'713.6
2017-Aug-16 19:30N 35°36' E 014°47'713.6
2017-Aug-16 19:00N 35°34' E 014°55'713.5
2017-Aug-16 18:30N 35°32' E 015°03'713.4
2017-Aug-16 18:00N 35°29' E 015°10'613.2
2017-Aug-16 17:30N 35°27' E 015°18'613.0
2017-Aug-16 17:00N 35°25' E 015°25'612.6
2017-Aug-16 16:30N 35°22' E 015°32'612.6
2017-Aug-16 16:00N 35°21' E 015°40'612.7
2017-Aug-16 15:30N 35°19' E 015°47'4313.3
2017-Aug-16 12:15N 35°04' E 016°37'313.4
2017-Aug-16 12:00N 35°03' E 016°41'  

Dump ship's entire track history